sensor_id;sensor_type;location;lat;lon;timestamp;temperature;humidity
68865;DHT22;55898;52.196;4.420;2022-09-09T00:06:42;17.45;82.82
68865;DHT22;55898;52.196;4.420;2022-09-09T00:09:13;17.41;82.98
68865;DHT22;55898;52.196;4.420;2022-09-09T00:20:05;17.31;82.98
68865;DHT22;55898;52.196;4.420;2022-09-09T00:22:41;17.30;83.37
68865;DHT22;55898;52.196;4.420;2022-09-09T00:25:24;17.31;83.71
68865;DHT22;55898;52.196;4.420;2022-09-09T00:27:51;17.28;83.70
68865;DHT22;55898;52.196;4.420;2022-09-09T00:30:20;17.30;83.84
68865;DHT22;55898;52.196;4.420;2022-09-09T00:32:50;17.26;83.45
68865;DHT22;55898;52.196;4.420;2022-09-09T00:35:32;17.24;83.61
68865;DHT22;55898;52.196;4.420;2022-09-09T00:38:13;17.26;83.73
68865;DHT22;55898;52.196;4.420;2022-09-09T00:43:32;17.24;83.82
68865;DHT22;55898;52.196;4.420;2022-09-09T00:51:47;17.23;83.54
68865;DHT22;55898;52.196;4.420;2022-09-09T00:54:33;17.21;83.71
68865;DHT22;55898;52.196;4.420;2022-09-09T00:57:13;17.19;83.91
68865;DHT22;55898;52.196;4.420;2022-09-09T00:59:50;17.20;84.03
68865;DHT22;55898;52.196;4.420;2022-09-09T01:02:39;17.19;83.85
68865;DHT22;55898;52.196;4.420;2022-09-09T01:05:23;17.13;83.89
68865;DHT22;55898;52.196;4.420;2022-09-09T01:07:52;17.16;83.98
68865;DHT22;55898;52.196;4.420;2022-09-09T01:10:41;17.13;83.94
68865;DHT22;55898;52.196;4.420;2022-09-09T01:13:24;17.11;84.11
68865;DHT22;55898;52.196;4.420;2022-09-09T01:15:50;17.07;83.95
68865;DHT22;55898;52.196;4.420;2022-09-09T01:18:22;17.02;83.90
68865;DHT22;55898;52.196;4.420;2022-09-09T01:26:44;16.99;84.03
68865;DHT22;55898;52.196;4.420;2022-09-09T01:29:16;16.96;84.35
68865;DHT22;55898;52.196;4.420;2022-09-09T01:31:54;16.97;84.59
68865;DHT22;55898;52.196;4.420;2022-09-09T01:34:22;17.00;84.65
68865;DHT22;55898;52.196;4.420;2022-09-09T01:37:03;17.00;84.62
68865;DHT22;55898;52.196;4.420;2022-09-09T01:39:33;17.03;84.78
68865;DHT22;55898;52.196;4.420;2022-09-09T01:42:02;17.10;84.77
68865;DHT22;55898;52.196;4.420;2022-09-09T01:44:30;17.11;84.76
68865;DHT22;55898;52.196;4.420;2022-09-09T01:46:55;17.10;84.49
68865;DHT22;55898;52.196;4.420;2022-09-09T01:49:21;17.10;84.31
68865;DHT22;55898;52.196;4.420;2022-09-09T01:51:52;17.10;84.61
68865;DHT22;55898;52.196;4.420;2022-09-09T01:54:19;17.04;84.18
68865;DHT22;55898;52.196;4.420;2022-09-09T02:00:09;17.03;84.76
68865;DHT22;55898;52.196;4.420;2022-09-09T02:08:52;17.02;84.78
68865;DHT22;55898;52.196;4.420;2022-09-09T02:11:20;16.99;84.46
68865;DHT22;55898;52.196;4.420;2022-09-09T02:13:50;16.96;84.68
68865;DHT22;55898;52.196;4.420;2022-09-09T02:16:32;16.97;84.75
68865;DHT22;55898;52.196;4.420;2022-09-09T02:21:55;16.92;84.42
68865;DHT22;55898;52.196;4.420;2022-09-09T02:24:22;16.93;84.59
68865;DHT22;55898;52.196;4.420;2022-09-09T02:26:51;16.86;84.53
68865;DHT22;55898;52.196;4.420;2022-09-09T02:29:32;16.89;84.58
68865;DHT22;55898;52.196;4.420;2022-09-09T02:32:02;16.89;84.87
68865;DHT22;55898;52.196;4.420;2022-09-09T02:34:35;16.92;84.85
68865;DHT22;55898;52.196;4.420;2022-09-09T02:37:03;16.93;84.87
68865;DHT22;55898;52.196;4.420;2022-09-09T02:39:31;16.94;84.70
68865;DHT22;55898;52.196;4.420;2022-09-09T02:41:56;16.93;84.42
68865;DHT22;55898;52.196;4.420;2022-09-09T02:44:22;16.84;83.97
68865;DHT22;55898;52.196;4.420;2022-09-09T02:49:32;16.86;84.27
68865;DHT22;55898;52.196;4.420;2022-09-09T02:52:06;16.83;84.35
68865;DHT22;55898;52.196;4.420;2022-09-09T02:54:37;16.80;84.22
68865;DHT22;55898;52.196;4.420;2022-09-09T02:59:30;16.77;84.26
68865;DHT22;55898;52.196;4.420;2022-09-09T03:01:56;16.77;84.48
68865;DHT22;55898;52.196;4.420;2022-09-09T03:04:22;16.77;84.43
68865;DHT22;55898;52.196;4.420;2022-09-09T03:06:48;16.77;84.35
68865;DHT22;55898;52.196;4.420;2022-09-09T03:09:14;16.73;84.26
68865;DHT22;55898;52.196;4.420;2022-09-09T03:11:39;16.69;83.85
68865;DHT22;55898;52.196;4.420;2022-09-09T03:14:05;16.69;84.12
68865;DHT22;55898;52.196;4.420;2022-09-09T03:16:30;16.73;84.29
68865;DHT22;55898;52.196;4.420;2022-09-09T03:18:56;16.72;83.99
68865;DHT22;55898;52.196;4.420;2022-09-09T03:21:22;16.69;84.27
68865;DHT22;55898;52.196;4.420;2022-09-09T03:23:47;16.68;84.33
68865;DHT22;55898;52.196;4.420;2022-09-09T03:26:13;16.69;84.38
68865;DHT22;55898;52.196;4.420;2022-09-09T03:28:41;16.66;84.02
68865;DHT22;55898;52.196;4.420;2022-09-09T03:31:07;16.61;84.02
68865;DHT22;55898;52.196;4.420;2022-09-09T03:33:38;16.58;84.31
68865;DHT22;55898;52.196;4.420;2022-09-09T03:36:05;16.61;84.27
68865;DHT22;55898;52.196;4.420;2022-09-09T03:38:31;16.61;84.37
68865;DHT22;55898;52.196;4.420;2022-09-09T03:40:57;16.59;84.46
68865;DHT22;55898;52.196;4.420;2022-09-09T03:43:24;16.59;84.59
68865;DHT22;55898;52.196;4.420;2022-09-09T03:45:51;16.56;84.29
68865;DHT22;55898;52.196;4.420;2022-09-09T03:48:18;16.56;84.21
68865;DHT22;55898;52.196;4.420;2022-09-09T03:50:49;16.55;84.11
68865;DHT22;55898;52.196;4.420;2022-09-09T03:53:17;16.53;84.16
68865;DHT22;55898;52.196;4.420;2022-09-09T03:55:49;16.53;84.34
68865;DHT22;55898;52.196;4.420;2022-09-09T03:58:16;16.47;83.94
68865;DHT22;55898;52.196;4.420;2022-09-09T04:00:44;16.44;84.03
68865;DHT22;55898;52.196;4.420;2022-09-09T04:03:17;16.40;84.43
68865;DHT22;55898;52.196;4.420;2022-09-09T04:05:43;16.38;84.46
68865;DHT22;55898;52.196;4.420;2022-09-09T04:08:08;16.40;84.56
68865;DHT22;55898;52.196;4.420;2022-09-09T04:10:34;16.42;84.74
68865;DHT22;55898;52.196;4.420;2022-09-09T04:13:04;16.48;84.85
68865;DHT22;55898;52.196;4.420;2022-09-09T04:15:30;16.44;84.43
68865;DHT22;55898;52.196;4.420;2022-09-09T04:17:56;16.47;84.22
68865;DHT22;55898;52.196;4.420;2022-09-09T04:20:22;16.42;83.97
68865;DHT22;55898;52.196;4.420;2022-09-09T04:22:47;16.42;84.16
68865;DHT22;55898;52.196;4.420;2022-09-09T04:25:13;16.44;84.19
68865;DHT22;55898;52.196;4.420;2022-09-09T04:27:39;16.44;83.99
68865;DHT22;55898;52.196;4.420;2022-09-09T04:30:05;16.44;84.11
68865;DHT22;55898;52.196;4.420;2022-09-09T04:32:34;16.40;83.66
68865;DHT22;55898;52.196;4.420;2022-09-09T04:35:01;16.36;83.85
68865;DHT22;55898;52.196;4.420;2022-09-09T04:37:27;16.34;84.21
68865;DHT22;55898;52.196;4.420;2022-09-09T04:39:52;16.34;83.86
68865;DHT22;55898;52.196;4.420;2022-09-09T04:42:18;16.34;83.83
68865;DHT22;55898;52.196;4.420;2022-09-09T04:44:44;16.35;83.97
68865;DHT22;55898;52.196;4.420;2022-09-09T04:47:09;16.31;83.81
68865;DHT22;55898;52.196;4.420;2022-09-09T04:49:35;16.34;83.97
68865;DHT22;55898;52.196;4.420;2022-09-09T04:52:03;16.32;83.92
68865;DHT22;55898;52.196;4.420;2022-09-09T04:54:29;16.31;83.73
68865;DHT22;55898;52.196;4.420;2022-09-09T04:56:54;16.34;83.96
68865;DHT22;55898;52.196;4.420;2022-09-09T04:59:21;16.34;84.01
68865;DHT22;55898;52.196;4.420;2022-09-09T05:01:47;16.32;83.93
68865;DHT22;55898;52.196;4.420;2022-09-09T05:04:13;16.31;83.85
68865;DHT22;55898;52.196;4.420;2022-09-09T05:06:40;16.32;83.84
68865;DHT22;55898;52.196;4.420;2022-09-09T05:09:08;16.32;83.58
68865;DHT22;55898;52.196;4.420;2022-09-09T05:11:34;16.34;83.79
68865;DHT22;55898;52.196;4.420;2022-09-09T05:14:02;16.31;83.24
68865;DHT22;55898;52.196;4.420;2022-09-09T05:16:28;16.29;83.67
68865;DHT22;55898;52.196;4.420;2022-09-09T05:18:55;16.32;83.39
68865;DHT22;55898;52.196;4.420;2022-09-09T05:21:23;16.26;83.55
68865;DHT22;55898;52.196;4.420;2022-09-09T05:23:49;16.29;83.54
68865;DHT22;55898;52.196;4.420;2022-09-09T05:26:19;16.28;83.48
68865;DHT22;55898;52.196;4.420;2022-09-09T05:28:45;16.29;83.30
68865;DHT22;55898;52.196;4.420;2022-09-09T05:31:13;16.31;83.49
68865;DHT22;55898;52.196;4.420;2022-09-09T05:33:41;16.32;83.65
68865;DHT22;55898;52.196;4.420;2022-09-09T05:36:10;16.41;83.67
68865;DHT22;55898;52.196;4.420;2022-09-09T05:38:39;16.49;83.77
68865;DHT22;55898;52.196;4.420;2022-09-09T05:41:06;16.53;83.40
68865;DHT22;55898;52.196;4.420;2022-09-09T05:43:33;16.62;83.42
68865;DHT22;55898;52.196;4.420;2022-09-09T05:46:09;16.63;83.24
68865;DHT22;55898;52.196;4.420;2022-09-09T05:48:41;16.69;83.19
68865;DHT22;55898;52.196;4.420;2022-09-09T05:51:10;16.76;83.04
68865;DHT22;55898;52.196;4.420;2022-09-09T05:53:38;16.72;82.48
68865;DHT22;55898;52.196;4.420;2022-09-09T05:56:09;16.68;82.38
68865;DHT22;55898;52.196;4.420;2022-09-09T05:58:36;16.62;82.68
68865;DHT22;55898;52.196;4.420;2022-09-09T06:01:04;16.69;83.05
68865;DHT22;55898;52.196;4.420;2022-09-09T06:03:29;16.66;82.77
68865;DHT22;55898;52.196;4.420;2022-09-09T06:06:00;16.63;82.68
68865;DHT22;55898;52.196;4.420;2022-09-09T06:08:26;16.63;82.87
68865;DHT22;55898;52.196;4.420;2022-09-09T06:10:52;16.65;82.94
68865;DHT22;55898;52.196;4.420;2022-09-09T06:13:17;16.63;82.88
68865;DHT22;55898;52.196;4.420;2022-09-09T06:15:50;16.72;82.81
68865;DHT22;55898;52.196;4.420;2022-09-09T06:18:18;16.71;82.98
68865;DHT22;55898;52.196;4.420;2022-09-09T06:21:00;16.77;83.39
68865;DHT22;55898;52.196;4.420;2022-09-09T06:23:32;16.82;83.25
68865;DHT22;55898;52.196;4.420;2022-09-09T06:26:10;16.83;82.88
68865;DHT22;55898;52.196;4.420;2022-09-09T06:28:36;16.86;82.80
68865;DHT22;55898;52.196;4.420;2022-09-09T06:31:06;16.86;82.66
68865;DHT22;55898;52.196;4.420;2022-09-09T06:33:34;16.87;82.52
68865;DHT22;55898;52.196;4.420;2022-09-09T06:36:02;16.89;82.61
68865;DHT22;55898;52.196;4.420;2022-09-09T06:38:29;16.89;82.48
68865;DHT22;55898;52.196;4.420;2022-09-09T06:40:57;16.96;82.24
68865;DHT22;55898;52.196;4.420;2022-09-09T06:43:25;16.97;82.23
68865;DHT22;55898;52.196;4.420;2022-09-09T06:45:58;17.03;81.98
68865;DHT22;55898;52.196;4.420;2022-09-09T06:48:24;17.06;82.08
68865;DHT22;55898;52.196;4.420;2022-09-09T06:51:09;17.00;81.89
68865;DHT22;55898;52.196;4.420;2022-09-09T06:53:40;16.99;81.97
68865;DHT22;55898;52.196;4.420;2022-09-09T06:58:41;17.09;81.59
68865;DHT22;55898;52.196;4.420;2022-09-09T07:01:15;17.07;82.00
68865;DHT22;55898;52.196;4.420;2022-09-09T07:03:42;17.20;82.36
68865;DHT22;55898;52.196;4.420;2022-09-09T07:06:14;17.24;82.04
68865;DHT22;55898;52.196;4.420;2022-09-09T07:08:40;17.20;81.39
68865;DHT22;55898;52.196;4.420;2022-09-09T07:11:08;17.19;81.52
68865;DHT22;55898;52.196;4.420;2022-09-09T07:13:34;17.24;81.19
68865;DHT22;55898;52.196;4.420;2022-09-09T07:16:16;17.27;81.44
68865;DHT22;55898;52.196;4.420;2022-09-09T07:18:42;17.28;80.78
68865;DHT22;55898;52.196;4.420;2022-09-09T07:21:10;17.19;81.02
68865;DHT22;55898;52.196;4.420;2022-09-09T07:23:37;17.26;81.23
68865;DHT22;55898;52.196;4.420;2022-09-09T07:26:14;17.34;81.18
68865;DHT22;55898;52.196;4.420;2022-09-09T07:28:40;17.35;80.75
68865;DHT22;55898;52.196;4.420;2022-09-09T07:31:13;17.38;80.78
68865;DHT22;55898;52.196;4.420;2022-09-09T07:33:40;17.37;80.93
68865;DHT22;55898;52.196;4.420;2022-09-09T07:36:08;17.34;80.86
68865;DHT22;55898;52.196;4.420;2022-09-09T07:38:45;17.26;80.77
68865;DHT22;55898;52.196;4.420;2022-09-09T07:41:26;17.34;81.32
68865;DHT22;55898;52.196;4.420;2022-09-09T07:43:53;17.32;80.63
68865;DHT22;55898;52.196;4.420;2022-09-09T07:46:21;17.37;81.02
68865;DHT22;55898;52.196;4.420;2022-09-09T07:48:49;17.38;80.53
68865;DHT22;55898;52.196;4.420;2022-09-09T07:51:25;17.28;80.61
68865;DHT22;55898;52.196;4.420;2022-09-09T07:53:56;17.27;80.36
68865;DHT22;55898;52.196;4.420;2022-09-09T07:56:24;17.31;80.43
68865;DHT22;55898;52.196;4.420;2022-09-09T07:58:52;17.41;80.32
68865;DHT22;55898;52.196;4.420;2022-09-09T08:01:25;17.40;80.39
68865;DHT22;55898;52.196;4.420;2022-09-09T08:04:29;17.47;80.56
68865;DHT22;55898;52.196;4.420;2022-09-09T08:06:50;17.45;80.19
68865;DHT22;55898;52.196;4.420;2022-09-09T08:09:19;17.47;80.53
68865;DHT22;55898;52.196;4.420;2022-09-09T08:11:45;17.44;80.19
68865;DHT22;55898;52.196;4.420;2022-09-09T08:14:11;17.47;80.02
68865;DHT22;55898;52.196;4.420;2022-09-09T08:16:43;17.61;80.43
68865;DHT22;55898;52.196;4.420;2022-09-09T08:19:09;17.72;80.45
68865;DHT22;55898;52.196;4.420;2022-09-09T08:21:37;17.75;79.76
68865;DHT22;55898;52.196;4.420;2022-09-09T08:24:04;17.68;79.31
68865;DHT22;55898;52.196;4.420;2022-09-09T08:26:33;17.71;79.26
68865;DHT22;55898;52.196;4.420;2022-09-09T08:29:01;17.71;79.49
68865;DHT22;55898;52.196;4.420;2022-09-09T08:31:33;17.67;79.55
68865;DHT22;55898;52.196;4.420;2022-09-09T08:34:01;17.74;79.39
68865;DHT22;55898;52.196;4.420;2022-09-09T08:36:30;17.74;79.33
68865;DHT22;55898;52.196;4.420;2022-09-09T08:38:59;17.67;79.38
68865;DHT22;55898;52.196;4.420;2022-09-09T08:50:33;17.68;79.07
68865;DHT22;55898;52.196;4.420;2022-09-09T08:55:54;17.72;79.57
68865;DHT22;55898;52.196;4.420;2022-09-09T08:58:28;17.85;79.36
68865;DHT22;55898;52.196;4.420;2022-09-09T09:11:53;17.86;78.94
68865;DHT22;55898;52.196;4.420;2022-09-09T09:14:22;17.88;78.90
68865;DHT22;55898;52.196;4.420;2022-09-09T09:17:06;17.93;79.34
68865;DHT22;55898;52.196;4.420;2022-09-09T09:19:40;17.86;79.44
68865;DHT22;55898;52.196;4.420;2022-09-09T09:22:18;17.93;80.57
68865;DHT22;55898;52.196;4.420;2022-09-09T09:24:55;17.90;81.15
68865;DHT22;55898;52.196;4.420;2022-09-09T09:27:30;17.93;81.74
68865;DHT22;55898;52.196;4.420;2022-09-09T09:29:59;17.93;81.84
68865;DHT22;55898;52.196;4.420;2022-09-09T09:32:30;17.92;81.74
68865;DHT22;55898;52.196;4.420;2022-09-09T09:34:58;17.98;81.92
68865;DHT22;55898;52.196;4.420;2022-09-09T09:37:31;17.96;80.97
68865;DHT22;55898;52.196;4.420;2022-09-09T09:40:18;18.02;81.61
68865;DHT22;55898;52.196;4.420;2022-09-09T09:42:52;18.00;81.20
68865;DHT22;55898;52.196;4.420;2022-09-09T09:45:27;18.19;81.21
68865;DHT22;55898;52.196;4.420;2022-09-09T09:48:05;18.50;81.33
68865;DHT22;55898;52.196;4.420;2022-09-09T09:50:32;18.65;81.23
68865;DHT22;55898;52.196;4.420;2022-09-09T09:53:06;18.87;81.04
68865;DHT22;55898;52.196;4.420;2022-09-09T09:55:53;18.89;80.55
68865;DHT22;55898;52.196;4.420;2022-09-09T09:58:19;18.88;80.91
68865;DHT22;55898;52.196;4.420;2022-09-09T10:00:53;18.88;80.11
68865;DHT22;55898;52.196;4.420;2022-09-09T10:03:24;18.91;80.15
68865;DHT22;55898;52.196;4.420;2022-09-09T10:05:50;18.87;79.40
68865;DHT22;55898;52.196;4.420;2022-09-09T10:08:17;18.77;79.60
68865;DHT22;55898;52.196;4.420;2022-09-09T10:11:09;18.75;79.71
68865;DHT22;55898;52.196;4.420;2022-09-09T10:16:59;18.54;81.19
68865;DHT22;55898;52.196;4.420;2022-09-09T10:19:34;18.44;82.13
68865;DHT22;55898;52.196;4.420;2022-09-09T10:30:56;18.13;83.18
68865;DHT22;55898;52.196;4.420;2022-09-09T10:36:23;18.02;83.97
68865;DHT22;55898;52.196;4.420;2022-09-09T10:38:59;17.96;84.05
68865;DHT22;55898;52.196;4.420;2022-09-09T10:44:20;18.14;83.82
68865;DHT22;55898;52.196;4.420;2022-09-09T10:47:27;18.03;83.99
68865;DHT22;55898;52.196;4.420;2022-09-09T10:56:13;18.05;83.71
68865;DHT22;55898;52.196;4.420;2022-09-09T10:58:54;17.99;84.15
68865;DHT22;55898;52.196;4.420;2022-09-09T11:01:27;18.12;84.25
68865;DHT22;55898;52.196;4.420;2022-09-09T11:04:09;18.19;84.25
68865;DHT22;55898;52.196;4.420;2022-09-09T11:06:41;18.44;84.33
68865;DHT22;55898;52.196;4.420;2022-09-09T11:09:17;18.74;82.76
68865;DHT22;55898;52.196;4.420;2022-09-09T11:11:53;19.08;82.26
68865;DHT22;55898;52.196;4.420;2022-09-09T11:14:34;19.35;81.71
68865;DHT22;55898;52.196;4.420;2022-09-09T11:17:32;19.47;81.07
68865;DHT22;55898;52.196;4.420;2022-09-09T11:19:54;19.63;81.01
68865;DHT22;55898;52.196;4.420;2022-09-09T11:22:39;19.60;80.05
68865;DHT22;55898;52.196;4.420;2022-09-09T11:28:01;20.26;78.49
68865;DHT22;55898;52.196;4.420;2022-09-09T11:38:50;20.35;77.81
68865;DHT22;55898;52.196;4.420;2022-09-09T11:41:19;21.57;74.83
68865;DHT22;55898;52.196;4.420;2022-09-09T11:43:52;22.47;70.30
68865;DHT22;55898;52.196;4.420;2022-09-09T11:46:33;22.55;70.65
68865;DHT22;55898;52.196;4.420;2022-09-09T11:49:03;22.99;68.40
68865;DHT22;55898;52.196;4.420;2022-09-09T11:51:31;23.01;68.47
68865;DHT22;55898;52.196;4.420;2022-09-09T11:54:04;22.68;68.69
68865;DHT22;55898;52.196;4.420;2022-09-09T11:56:48;21.83;71.38
68865;DHT22;55898;52.196;4.420;2022-09-09T12:11:49;19.67;79.22
68865;DHT22;55898;52.196;4.420;2022-09-09T12:17:24;19.88;80.03
68865;DHT22;55898;52.196;4.420;2022-09-09T12:20:15;20.08;78.52
68865;DHT22;55898;52.196;4.420;2022-09-09T12:25:54;19.88;78.51
68865;DHT22;55898;52.196;4.420;2022-09-09T12:33:45;20.10;77.66
68865;DHT22;55898;52.196;4.420;2022-09-09T12:36:29;20.15;78.67
68865;DHT22;55898;52.196;4.420;2022-09-09T12:38:59;20.29;79.31
68865;DHT22;55898;52.196;4.420;2022-09-09T12:41:35;20.42;78.38
68865;DHT22;55898;52.196;4.420;2022-09-09T12:44:06;20.43;77.68
68865;DHT22;55898;52.196;4.420;2022-09-09T12:46:36;20.35;76.89
68865;DHT22;55898;52.196;4.420;2022-09-09T12:49:04;20.35;77.93
68865;DHT22;55898;52.196;4.420;2022-09-09T12:51:32;20.51;78.70
68865;DHT22;55898;52.196;4.420;2022-09-09T12:53:59;20.65;79.03
68865;DHT22;55898;52.196;4.420;2022-09-09T12:56:29;20.73;77.08
68865;DHT22;55898;52.196;4.420;2022-09-09T12:58:57;20.52;76.44
68865;DHT22;55898;52.196;4.420;2022-09-09T13:01:27;20.48;77.56
68865;DHT22;55898;52.196;4.420;2022-09-09T13:03:53;20.31;76.58
68865;DHT22;55898;52.196;4.420;2022-09-09T13:06:23;20.22;77.28
68865;DHT22;55898;52.196;4.420;2022-09-09T13:08:54;20.21;77.91
68865;DHT22;55898;52.196;4.420;2022-09-09T13:11:26;20.21;77.99
68865;DHT22;55898;52.196;4.420;2022-09-09T13:13:56;20.24;79.33
68865;DHT22;55898;52.196;4.420;2022-09-09T13:16:26;20.31;79.77
68865;DHT22;55898;52.196;4.420;2022-09-09T13:19:02;20.41;80.19
68865;DHT22;55898;52.196;4.420;2022-09-09T13:21:37;20.48;78.37
68865;DHT22;55898;52.196;4.420;2022-09-09T13:24:05;20.49;79.16
68865;DHT22;55898;52.196;4.420;2022-09-09T13:26:34;20.55;79.17
68865;DHT22;55898;52.196;4.420;2022-09-09T13:29:29;20.49;79.13
68865;DHT22;55898;52.196;4.420;2022-09-09T13:32:17;20.42;79.51
68865;DHT22;55898;52.196;4.420;2022-09-09T13:34:54;20.35;80.03
68865;DHT22;55898;52.196;4.420;2022-09-09T13:37:31;20.31;80.02
68865;DHT22;55898;52.196;4.420;2022-09-09T13:39:58;20.18;79.08
68865;DHT22;55898;52.196;4.420;2022-09-09T13:42:27;20.07;79.76
68865;DHT22;55898;52.196;4.420;2022-09-09T13:44:55;19.95;79.51
68865;DHT22;55898;52.196;4.420;2022-09-09T13:47:29;19.87;78.86
68865;DHT22;55898;52.196;4.420;2022-09-09T13:49:55;19.80;79.14
68865;DHT22;55898;52.196;4.420;2022-09-09T13:52:21;19.67;79.57
68865;DHT22;55898;52.196;4.420;2022-09-09T13:54:52;19.64;80.50
68865;DHT22;55898;52.196;4.420;2022-09-09T13:57:20;19.60;80.46
68865;DHT22;55898;52.196;4.420;2022-09-09T13:59:47;19.60;80.72
68865;DHT22;55898;52.196;4.420;2022-09-09T14:02:14;19.47;80.64
68865;DHT22;55898;52.196;4.420;2022-09-09T14:04:39;19.46;81.26
68865;DHT22;55898;52.196;4.420;2022-09-09T14:07:11;19.46;81.81
68865;DHT22;55898;52.196;4.420;2022-09-09T14:09:38;19.49;82.36
68865;DHT22;55898;52.196;4.420;2022-09-09T14:12:04;19.29;85.09
68865;DHT22;55898;52.196;4.420;2022-09-09T14:14:30;19.08;85.18
68865;DHT22;55898;52.196;4.420;2022-09-09T14:16:55;18.92;85.29
68865;DHT22;55898;52.196;4.420;2022-09-09T14:19:21;18.75;86.47
68865;DHT22;55898;52.196;4.420;2022-09-09T14:21:46;18.67;86.50
68865;DHT22;55898;52.196;4.420;2022-09-09T14:24:11;18.63;87.11
68865;DHT22;55898;52.196;4.420;2022-09-09T14:26:37;18.53;86.79
68865;DHT22;55898;52.196;4.420;2022-09-09T14:29:03;18.48;87.49
68865;DHT22;55898;52.196;4.420;2022-09-09T14:31:29;18.56;87.49
68865;DHT22;55898;52.196;4.420;2022-09-09T14:33:54;18.53;87.46
68865;DHT22;55898;52.196;4.420;2022-09-09T14:36:20;18.54;87.91
68865;DHT22;55898;52.196;4.420;2022-09-09T14:38:46;18.50;87.63
68865;DHT22;55898;52.196;4.420;2022-09-09T14:41:15;18.48;87.68
68865;DHT22;55898;52.196;4.420;2022-09-09T14:43:44;18.40;87.51
68865;DHT22;55898;52.196;4.420;2022-09-09T14:46:15;18.37;87.89
68865;DHT22;55898;52.196;4.420;2022-09-09T14:48:42;18.36;87.94
68865;DHT22;55898;52.196;4.420;2022-09-09T14:51:20;18.32;89.59
68865;DHT22;55898;52.196;4.420;2022-09-09T14:53:48;18.22;89.55
68865;DHT22;55898;52.196;4.420;2022-09-09T14:56:19;18.22;89.66
68865;DHT22;55898;52.196;4.420;2022-09-09T14:58:45;18.09;89.41
68865;DHT22;55898;52.196;4.420;2022-09-09T15:01:14;17.99;92.89
68865;DHT22;55898;52.196;4.420;2022-09-09T15:08:38;17.67;92.49
68865;DHT22;55898;52.196;4.420;2022-09-09T15:30:52;17.67;92.23
68865;DHT22;55898;52.196;4.420;2022-09-09T15:33:19;17.71;92.26
68865;DHT22;55898;52.196;4.420;2022-09-09T15:35:45;17.77;92.42
68865;DHT22;55898;52.196;4.420;2022-09-09T15:38:11;17.83;92.27
68865;DHT22;55898;52.196;4.420;2022-09-09T15:40:42;17.85;91.64
68865;DHT22;55898;52.196;4.420;2022-09-09T15:43:08;17.90;91.60
68865;DHT22;55898;52.196;4.420;2022-09-09T15:45:36;17.98;91.34
68865;DHT22;55898;52.196;4.420;2022-09-09T15:48:02;17.99;91.21
68865;DHT22;55898;52.196;4.420;2022-09-09T15:50:28;18.06;91.46
68865;DHT22;55898;52.196;4.420;2022-09-09T15:52:56;18.10;91.35
68865;DHT22;55898;52.196;4.420;2022-09-09T15:55:22;18.10;91.31
68865;DHT22;55898;52.196;4.420;2022-09-09T15:57:49;18.23;91.07
68865;DHT22;55898;52.196;4.420;2022-09-09T16:00:17;18.34;90.84
68865;DHT22;55898;52.196;4.420;2022-09-09T16:02:43;18.44;90.80
68865;DHT22;55898;52.196;4.420;2022-09-09T16:05:09;18.50;91.03
68865;DHT22;55898;52.196;4.420;2022-09-09T16:07:34;18.58;91.05
68865;DHT22;55898;52.196;4.420;2022-09-09T16:10:01;18.65;90.83
68865;DHT22;55898;52.196;4.420;2022-09-09T16:12:26;18.71;90.85
68865;DHT22;55898;52.196;4.420;2022-09-09T16:14:52;18.81;91.06
68865;DHT22;55898;52.196;4.420;2022-09-09T16:17:17;18.84;91.11
68865;DHT22;55898;52.196;4.420;2022-09-09T16:19:46;18.94;91.09
68865;DHT22;55898;52.196;4.420;2022-09-09T16:22:11;18.98;91.12
68865;DHT22;55898;52.196;4.420;2022-09-09T16:24:36;19.05;91.03
68865;DHT22;55898;52.196;4.420;2022-09-09T16:27:02;18.98;90.91
68865;DHT22;55898;52.196;4.420;2022-09-09T16:29:28;18.98;91.03
68865;DHT22;55898;52.196;4.420;2022-09-09T16:31:54;18.98;91.09
68865;DHT22;55898;52.196;4.420;2022-09-09T16:34:20;19.01;91.16
68865;DHT22;55898;52.196;4.420;2022-09-09T16:36:48;19.01;91.16
68865;DHT22;55898;52.196;4.420;2022-09-09T16:39:16;19.04;90.97
68865;DHT22;55898;52.196;4.420;2022-09-09T16:41:44;19.05;90.79
68865;DHT22;55898;52.196;4.420;2022-09-09T16:44:12;19.01;90.81
68865;DHT22;55898;52.196;4.420;2022-09-09T16:46:40;18.78;89.99
68865;DHT22;55898;52.196;4.420;2022-09-09T16:49:09;18.63;89.67
68865;DHT22;55898;52.196;4.420;2022-09-09T16:51:53;18.63;90.44
68865;DHT22;55898;52.196;4.420;2022-09-09T16:54:20;18.51;89.58
68865;DHT22;55898;52.196;4.420;2022-09-09T16:56:47;18.47;90.30
68865;DHT22;55898;52.196;4.420;2022-09-09T16:59:18;18.38;90.04
68865;DHT22;55898;52.196;4.420;2022-09-09T17:01:46;18.29;89.52
68865;DHT22;55898;52.196;4.420;2022-09-09T17:04:14;18.25;90.26
68865;DHT22;55898;52.196;4.420;2022-09-09T17:06:47;18.26;90.59
68865;DHT22;55898;52.196;4.420;2022-09-09T17:09:15;18.32;90.90
68865;DHT22;55898;52.196;4.420;2022-09-09T17:11:41;18.34;91.24
68865;DHT22;55898;52.196;4.420;2022-09-09T17:14:10;18.37;91.08
68865;DHT22;55898;52.196;4.420;2022-09-09T17:16:37;18.41;90.87
68865;DHT22;55898;52.196;4.420;2022-09-09T17:19:04;18.41;90.60
68865;DHT22;55898;52.196;4.420;2022-09-09T17:21:32;18.34;90.50
68865;DHT22;55898;52.196;4.420;2022-09-09T17:23:59;18.22;90.26
68865;DHT22;55898;52.196;4.420;2022-09-09T17:26:28;18.23;90.79
68865;DHT22;55898;52.196;4.420;2022-09-09T17:28:55;18.27;90.83
68865;DHT22;55898;52.196;4.420;2022-09-09T17:31:24;18.29;90.79
68865;DHT22;55898;52.196;4.420;2022-09-09T17:33:51;18.29;90.81
68865;DHT22;55898;52.196;4.420;2022-09-09T17:36:23;18.20;90.79
68865;DHT22;55898;52.196;4.420;2022-09-09T17:38:50;18.20;90.90
68865;DHT22;55898;52.196;4.420;2022-09-09T17:41:25;18.19;90.70
68865;DHT22;55898;52.196;4.420;2022-09-09T17:43:52;18.10;90.09
68865;DHT22;55898;52.196;4.420;2022-09-09T17:46:29;18.02;89.92
68865;DHT22;55898;52.196;4.420;2022-09-09T17:48:58;18.03;90.56
68865;DHT22;55898;52.196;4.420;2022-09-09T17:51:26;18.05;90.82
68865;DHT22;55898;52.196;4.420;2022-09-09T17:53:55;18.05;90.98
68865;DHT22;55898;52.196;4.420;2022-09-09T17:56:25;17.95;90.51
68865;DHT22;55898;52.196;4.420;2022-09-09T17:58:52;17.90;90.48
68865;DHT22;55898;52.196;4.420;2022-09-09T18:01:27;17.89;90.80
68865;DHT22;55898;52.196;4.420;2022-09-09T18:03:54;17.88;90.87
68865;DHT22;55898;52.196;4.420;2022-09-09T18:06:24;17.89;90.84
68865;DHT22;55898;52.196;4.420;2022-09-09T18:08:58;17.89;91.01
68865;DHT22;55898;52.196;4.420;2022-09-09T18:11:27;17.90;90.92
68865;DHT22;55898;52.196;4.420;2022-09-09T18:13:55;17.90;90.81
68865;DHT22;55898;52.196;4.420;2022-09-09T18:16:23;17.88;90.96
68865;DHT22;55898;52.196;4.420;2022-09-09T18:18:49;17.85;90.60
68865;DHT22;55898;52.196;4.420;2022-09-09T18:21:16;17.82;90.64
68865;DHT22;55898;52.196;4.420;2022-09-09T18:23:46;17.82;90.82